Latest Weather Observations for Cerberus

IDV60801

Issued at 5:05 pm EST Monday 21 April 2014 (issued every 30 minutes, with the page automatically refreshed every 10 minutes)

About weather observations | Map of weather stations | Latest weather observations for VIC | Other Formats
Station Details ID: 086361 Name: CERBERUS Lat: -38.36 Lon: 145.18 Height: 12.69 m
Data from the previous 72 hours. | See also: Recent months at Cerberus
Date/Time
EST
Temp
°C
App
Temp
°C
Dew
Point
Rel
Hum
%
Delta-T
°C
Wind Press
QNH
hPa
Press
MSL
hPa
Rain
since 9 am
mm
Dir
 
Spd
km/h
Gust
km/h
Spd
kts
Gust
kts
21/05:00pm 18.3 14.1 5.8 44 6.1 N 17 28 9 15 1013.4 1013.4 0.0
21/04:30pm 18.3 14.1 5.5 43 6.2 N 17 30 9 16 1013.4 - 0.0
21/04:00pm 18.4 13.5 5.3 42 6.4 N 20 33 11 18 1013.8 1013.7 0.0
21/03:30pm 18.3 12.7 5.2 42 6.3 N 24 41 13 22 1014.2 - 0.0
21/03:00pm 18.4 12.7 4.9 41 6.5 N 24 41 13 22 1014.4 1014.3 0.0
21/02:30pm 18.5 13.3 5.4 42 6.4 NNW 22 39 12 21 1015.1 - 0.0
21/02:00pm 18.5 13.9 5.4 42 6.4 NNW 19 32 10 17 1015.0 1014.9 0.0
21/01:30pm 18.5 13.3 5.4 42 6.4 N 22 39 12 21 1014.9 - 0.0
21/01:00pm 18.6 12.9 4.8 40 6.6 NNW 24 43 13 23 1015.3 1015.2 0.0
21/12:30pm 18.6 12.4 4.4 39 6.8 NNW 26 41 14 22 1015.6 - 0.0
21/12:00pm 18.2 13.5 5.1 42 6.3 N 19 35 10 19 1016.6 1016.5 0.0
21/11:30am 18.6 14.0 5.5 42 6.4 N 19 35 10 19 1016.9 - 0.0
21/11:00am 17.4 12.8 5.7 46 5.7 N 19 30 10 16 1017.4 1017.3 0.0
21/10:30am 16.8 12.3 6.0 49 5.3 N 19 33 10 18 1017.7 - 0.0
21/10:00am 16.4 12.3 6.2 51 5.0 N 17 33 9 18 1017.9 1017.8 0.0
21/09:30am 15.7 12.3 5.9 52 4.7 N 13 26 7 14 1018.4 - 0.0
21/09:00am 15.5 12.1 5.7 52 4.7 N 13 30 7 16 1018.5 1018.4 0.0
21/08:30am 14.5 10.7 5.6 55 4.2 N 15 28 8 15 1018.2 - 0.0
21/08:00am 13.8 11.5 5.9 59 3.7 N 7 17 4 9 1018.3 1018.2 0.0
21/07:30am 13.4 10.6 5.3 58 3.8 N 9 17 5 9 1018.3 - 0.0
21/07:00am 13.1 10.6 5.0 58 3.7 NNE 7 15 4 8 1018.2 1018.1 0.0
21/06:30am 13.2 10.0 4.9 57 3.8 N 11 20 6 11 1017.7 - 0.0
21/06:00am 12.9 10.6 5.6 61 3.4 NNE 7 15 4 8 1017.7 1017.6 0.0
21/05:30am 12.8 10.5 5.5 61 3.4 N 7 15 4 8 1017.8 - 0.0
21/05:00am 13.0 10.2 5.2 59 3.6 N 9 17 5 9 1017.7 1017.6 0.0
21/04:30am 12.9 9.8 5.6 61 3.4 N 11 17 6 9 1017.4 - 0.0
21/04:00am 12.6 9.5 5.5 62 3.3 NNW 11 19 6 10 1017.5 1017.4 0.0
21/03:30am 12.3 9.9 5.2 62 3.3 NNW 7 13 4 7 1017.5 - 0.0
21/03:00am 13.4 9.5 5.3 58 3.8 NNW 15 24 8 13 1017.2 1017.1 0.0
21/02:30am 13.6 9.3 5.3 57 3.9 N 17 26 9 14 1017.3 - 0.0
21/02:00am 13.2 9.7 5.6 60 3.6 NNW 13 20 7 11 1017.5 1017.4 0.0
21/01:30am 13.1 9.6 5.5 60 3.6 NNW 13 22 7 12 1017.4 - 0.0
21/01:00am 12.6 10.4 5.5 62 3.3 N 6 11 3 6 1017.6 1017.5 0.0
21/12:30am 13.0 9.9 5.7 61 3.4 N 11 20 6 11 1017.5 - 0.0
21/12:00am 12.8 10.2 5.9 63 3.2 N 9 17 5 9 1017.5 1017.4 0.0
 
Date/Time
EST
Temp
°C
App
Temp
°C
Dew
Point
Rel
Hum
%
Delta-T
°C
Wind Press
QNH
hPa
Press
MSL
hPa
Rain
since 9 am
mm
Dir
 
Spd
km/h
Gust
km/h
Spd
kts
Gust
kts
20/11:30pm 13.2 10.6 6.1 62 3.4 N 9 15 5 8 1017.4 - 0.0
20/11:00pm 14.1 11.9 6.2 59 3.8 N 7 13 4 7 1017.6 1017.5 0.0
20/10:30pm 14.3 11.4 6.4 59 3.8 N 11 17 6 9 1017.6 - 0.0
20/10:00pm 14.4 11.9 6.5 59 3.8 N 9 15 5 8 1017.7 1017.6 0.0
20/09:30pm 14.4 11.9 6.7 60 3.7 N 9 19 5 10 1017.7 - 0.0
20/09:00pm 14.4 11.9 6.5 59 3.8 N 9 15 5 8 1017.5 1017.4 0.0
20/08:30pm 14.9 12.4 6.7 58 4.0 N 9 17 5 9 1017.4 - 0.0
20/08:00pm 15.1 13.1 6.9 58 4.0 N 7 11 4 6 1017.4 1017.3 0.0
20/07:30pm 15.2 13.5 8.2 63 3.5 N 7 13 4 7 1017.2 - 0.0
20/07:00pm 14.5 12.9 8.2 66 3.1 N 6 9 3 5 1017.0 1016.9 0.0
20/06:30pm 15.2 13.5 7.5 60 3.8 N 6 7 3 4 1016.7 - 0.0
20/06:00pm 16.2 14.8 7.4 56 4.4 NW 4 6 2 3 1016.5 1016.4 0.0
20/05:30pm 16.9 15.9 7.3 53 4.8 NW 2 6 1 3 1016.2 - 0.0
20/05:00pm 17.8 15.2 6.3 47 5.7 WNW 9 15 5 8 1016.0 1015.9 0.0
20/04:30pm 17.9 14.5 6.1 46 5.8 WNW 13 17 7 9 1016.0 - 0.0
20/04:00pm 18.8 15.9 6.3 44 6.2 WNW 11 17 6 9 1015.7 1015.6 0.0
20/03:30pm 18.8 15.3 5.6 42 6.5 WNW 13 20 7 11 1015.7 - 0.0
20/03:00pm 17.7 14.5 5.3 44 6.0 WNW 11 20 6 11 1015.8 1015.7 0.0
20/02:30pm 18.1 13.9 5.7 44 6.0 WNW 17 26 9 14 1015.7 - 0.0
20/02:00pm 18.7 14.1 5.5 42 6.4 WNW 19 28 10 15 1015.6 1015.5 0.0
20/01:30pm 18.0 13.7 5.2 43 6.2 WNW 17 26 9 14 1015.8 - 0.0
20/01:00pm 18.3 13.5 4.8 41 6.5 WNW 19 28 10 15 1016.0 1015.9 0.0
20/12:30pm 18.0 13.2 4.9 42 6.3 NW 19 28 10 15 1016.3 - 0.0
20/12:00pm 17.1 12.8 5.4 46 5.6 WNW 17 26 9 14 1016.7 1016.6 0.0
20/11:30am 16.9 12.1 5.5 47 5.5 WNW 20 35 11 19 1017.0 - 0.0
20/11:00am 16.5 12.2 5.2 47 5.4 WNW 17 26 9 14 1017.1 1017.0 0.0
20/10:30am 16.1 11.8 5.4 49 5.1 WNW 17 26 9 14 1017.3 - 0.0
20/10:00am 15.7 11.9 5.6 51 4.8 WNW 15 24 8 13 1017.3 1017.2 0.0
20/09:30am 14.5 11.3 6.8 60 3.7 WNW 13 20 7 11 1017.5 - 0.0
20/09:00am 14.2 13.8 9.6 74 2.4 NNW 2 7 1 4 1017.5 1017.4 0.0
20/08:30am 13.1 12.5 9.0 76 2.1 NNW 2 6 1 3 1017.3 - 0.0
20/08:00am 12.6 11.6 8.7 77 1.9 NNW 4 4 2 2 1017.3 1017.2 0.0
20/07:30am 12.1 10.6 8.4 78 1.8 NW 6 9 3 5 1017.1 - 0.0
20/07:00am 11.8 10.6 8.1 78 1.8 WNW 4 6 2 3 1016.9 1016.8 0.0
20/06:30am 12.0 10.8 7.9 76 2.0 WNW 4 6 2 3 1016.7 - 0.0
20/06:00am 12.6 11.0 7.9 73 2.3 WNW 6 7 3 4 1016.5 1016.4 0.0
20/05:30am 12.9 11.2 8.2 73 2.3 WNW 7 11 4 6 1016.5 - 0.0
20/05:00am 13.0 10.9 8.1 72 2.4 NW 9 13 5 7 1016.4 1016.3 0.0
20/04:30am 12.9 10.9 8.6 75 2.1 WNW 9 13 5 7 1016.2 - 0.0
20/04:00am 11.8 10.3 8.6 81 1.6 NW 6 7 3 4 1016.3 1016.2 0.0
20/03:30am 11.8 10.7 8.3 79 1.7 N 4 6 2 3 1016.3 - 0.0
20/03:00am 12.1 11.0 8.6 79 1.7 N 4 6 2 3 1016.4 1016.3 0.0
20/02:30am 12.1 11.0 8.6 79 1.7 N 4 6 2 3 1016.6 - 0.0
20/02:00am 12.1 11.1 8.8 80 1.6 N 4 6 2 3 1016.9 1016.8 0.0
20/01:30am 12.0 11.0 8.7 80 1.6 N 4 6 2 3 1017.0 - 0.0
20/01:00am 11.8 10.7 8.6 81 1.6 N 4 7 2 4 1017.1 1017.0 0.0
20/12:30am 11.5 10.4 8.5 82 1.5 N 4 6 2 3 1017.1 - 0.0
20/12:00am 11.4 10.3 8.4 82 1.5 NNE 4 4 2 2 1017.3 1017.2 0.0
 
Date/Time
EST
Temp
°C
App
Temp
°C
Dew
Point
Rel
Hum
%
Delta-T
°C
Wind Press
QNH
hPa
Press
MSL
hPa
Rain
since 9 am
mm
Dir
 
Spd
km/h
Gust
km/h
Spd
kts
Gust
kts
19/11:30pm 10.9 10.5 8.3 84 1.3 CALM 0 0 0 0 1017.5 - 0.0
19/11:00pm 11.0 9.5 8.4 84 1.3 NNW 6 7 3 4 1017.8 1017.7 0.0
19/10:30pm 11.0 9.3 8.2 83 1.4 NNW 7 7 4 4 1018.0 - 0.0
19/10:00pm 10.8 10.3 8.0 83 1.4 CALM 0 0 0 0 1018.2 1018.1 0.0
19/09:30pm 10.9 10.1 8.0 82 1.4 NNW 2 4 1 2 1018.3 - 0.0
19/09:00pm 11.0 9.4 8.1 82 1.4 NNW 6 6 3 3 1018.3 1018.2 0.0
19/08:30pm 10.3 8.4 7.4 82 1.4 NNW 7 9 4 5 1018.6 - 0.0
19/08:00pm 10.2 8.8 7.1 81 1.5 NNW 4 7 2 4 1018.6 1018.5 0.0
19/07:30pm 9.8 7.9 6.5 80 1.5 NNW 6 7 3 4 1018.7 - 0.0
19/07:00pm 10.1 8.0 5.7 74 2.0 W 6 6 3 3 1018.6 1018.5 0.0
19/06:30pm 12.2 10.6 6.5 68 2.7 W 4 6 2 3 1018.5 - 0.0
19/06:00pm 13.1 11.2 6.9 66 3.0 W 6 9 3 5 1018.4 1018.3 0.0
19/05:30pm 13.9 11.0 6.7 62 3.5 WSW 11 17 6 9 1018.3 - 0.0
19/05:00pm 14.1 11.3 6.9 62 3.5 WSW 11 15 6 8 1018.4 1018.3 0.0
19/04:30pm 14.3 11.2 7.4 63 3.4 SW 13 20 7 11 1018.5 - 0.0
19/04:00pm 14.6 11.8 8.5 67 3.1 SSW 13 20 7 11 1018.6 1018.5 0.0
19/03:30pm 14.7 10.4 7.0 60 3.8 SW 19 24 10 13 1018.6 - 0.0
19/03:00pm 13.9 12.5 8.9 72 2.5 W 6 11 3 6 1018.8 1018.7 0.0
19/02:30pm 13.4 9.4 8.3 71 2.5 WSW 19 28 10 15 1018.9 - 0.0
19/02:00pm 14.0 11.2 8.6 70 2.7 SSW 13 22 7 12 1018.9 1018.8 0.0
19/01:30pm 14.5 11.5 7.5 63 3.5 SW 13 20 7 11 1019.0 - 0.0
19/01:00pm 13.2 9.7 8.9 75 2.2 SSW 17 24 9 13 1019.4 1019.3 0.0
19/12:30pm 14.2 9.8 9.0 71 2.6 SW 22 37 12 20 1019.6 - 0.0
19/12:00pm 14.7 11.8 8.0 64 3.3 SW 13 19 7 10 1019.9 1019.8 0.0
19/11:30am 14.9 10.6 7.0 59 3.9 SSW 19 30 10 16 1020.1 - 0.0
19/11:00am 14.4 11.5 8.1 66 3.1 SSW 13 20 7 11 1020.2 1020.1 0.0
19/10:30am 13.8 9.7 8.6 71 2.6 SSW 20 30 11 16 1020.3 - 0.0
19/10:00am 14.3 12.1 9.3 72 2.5 WSW 11 22 6 12 1020.2 1020.1 0.0
19/09:30am 12.9 12.3 10.3 84 1.3 W 4 7 2 4 1020.0 - 0.0
19/09:00am 11.8 10.1 9.7 87 1.1 W 9 15 5 8 1020.2 1020.1 4.2
19/08:30am 12.2 10.1 9.9 86 1.2 W 11 20 6 11 1020.0 - 4.2
19/08:00am 11.3 8.2 8.7 84 1.3 W 15 20 8 11 1019.9 1019.8 4.2
19/07:30am 11.9 10.2 8.2 78 1.8 W 7 11 4 6 1019.5 - 4.2
19/07:00am 11.7 9.5 8.0 78 1.8 W 9 15 5 8 1019.0 1018.9 4.2
19/06:30am 11.9 10.1 7.2 73 2.3 SW 6 13 3 7 1018.9 - 4.2
19/06:00am 12.4 10.0 8.5 77 1.9 SSW 11 20 6 11 1018.9 1018.8 4.2
19/05:30am 11.1 10.4 8.5 84 1.3 WSW 2 6 1 3 1018.7 - 4.2
19/05:00am 10.9 8.0 8.3 84 1.3 WNW 13 19 7 10 1018.8 1018.7 4.2
19/04:30am 12.3 10.5 8.0 75 2.1 SSW 7 11 4 6 1018.6 - 3.8
19/04:00am 11.7 10.1 8.6 81 1.5 W 7 11 4 6 1018.5 1018.4 3.8
19/03:30am 11.8 8.2 8.3 79 1.7 W 17 30 9 16 1018.7 - 3.8
19/03:00am 13.8 10.2 6.7 62 3.4 SW 15 26 8 14 1018.6 1018.5 3.6
19/02:30am 13.8 10.6 6.9 63 3.3 SSW 13 26 7 14 1018.7 - 3.6
19/02:00am 13.2 11.1 6.5 64 3.2 SSW 7 15 4 8 1018.9 1018.8 3.6
19/01:30am 13.4 9.9 7.4 67 2.9 SW 15 24 8 13 1019.2 - 3.6
19/01:00am 11.5 9.0 4.5 62 3.2 W 7 9 4 5 1019.2 1019.1 3.6
19/12:30am 11.9 9.0 4.9 62 3.2 W 9 13 5 7 1019.3 - 3.6
19/12:00am 12.6 9.4 5.3 61 3.4 W 11 17 6 9 1019.2 1019.1 3.6
 
Date/Time
EST
Temp
°C
App
Temp
°C
Dew
Point
Rel
Hum
%
Delta-T
°C
Wind Press
QNH
hPa
Press
MSL
hPa
Rain
since 9 am
mm
Dir
 
Spd
km/h
Gust
km/h
Spd
kts
Gust
kts
18/11:30pm 13.4 10.5 6.5 63 3.3 WSW 11 19 6 10 1019.1 - 3.6
18/11:00pm 13.3 10.7 7.7 69 2.7 WSW 11 24 6 13 1019.2 1019.1 3.6
18/10:30pm 13.7 10.9 8.7 72 2.5 SW 13 28 7 15 1019.3 - 3.6
18/10:00pm 13.4 9.9 7.2 66 3.0 WSW 15 24 8 13 1019.3 1019.2 3.6
18/09:30pm 14.3 10.2 7.8 65 3.2 SW 19 32 10 17 1019.4 - 3.6
18/09:00pm 13.3 10.6 7.3 67 2.9 WSW 11 20 6 11 1019.3 1019.2 3.6
18/08:30pm 13.4 10.6 7.0 65 3.1 SW 11 19 6 10 1019.0 - 3.6
18/08:00pm 13.9 10.2 7.9 67 3.0 WSW 17 33 9 18 1018.9 1018.8 3.6
18/07:30pm 14.3 10.1 7.6 64 3.3 SW 19 28 10 15 1018.7 - 3.6
18/07:00pm 14.3 9.9 7.4 63 3.4 SW 20 32 11 17 1018.6 1018.5 3.6
18/06:30pm 12.7 10.5 7.8 72 2.4 W 9 13 5 7 1018.5 - 3.6
18/06:00pm 13.4 10.1 8.0 70 2.7 W 15 22 8 12 1018.3 1018.2 3.6
18/05:30pm 14.0 11.6 7.1 63 3.4 W 9 15 5 8 1017.9 - 3.6

Other Formats:

Comma delimited format used in spreadsheet applications
http://www.bom.gov.au/fwo/IDV60801/IDV60801.94898.axf

JavaScript Object Notation format (JSON) in row-major order
http://www.bom.gov.au/fwo/IDV60801/IDV60801.94898.json